Hughesville, MO (65334)

4:18 AM CST on December 11, 2016 (GMT -0600)
Sedalia MO | | Change Station

Elev 909 ft 38.70 °N, 93.24 °W | Updated 22 seconds ago

Overcast
Overcast
41.5 °F
Feels Like 42 °F
N
0.9
Wind Variable Wind from SSW
Gusts 2.5 mph

Today
High -- | Low -- °F
--% Chance of Precip.
Yesterday
High -- | Low -- °F
Precip. -- in
Pressure 29.91 in
Visibility 10.0 miles
Clouds Overcast 2900 ft
Windchill 42 °F
Dew Point 24 °F
Humidity 50%
Rainfall 0.00 in
Snow Depth Not available.
7:21 AM 4:51 PM
Waxing Gibbous, 90% visible
METAR KDMO 110953Z AUTO 16014KT 10SM OVC029 05/M04 A2989 RMK AO2 SLP127 T00501044 $
Pressure 29.91 in
Visibility 10.0 miles
Clouds Overcast 2900 ft
Windchill 42 °F
Dew Point 24 °F
Humidity 50%
Rainfall 0.00 in
Snow Depth Not available.
7:21 AM 4:51 PM
Waxing Gibbous, 90% visible
METAR KDMO 110953Z AUTO 16014KT 10SM OVC029 05/M04 A2989 RMK AO2 SLP127 T00501044 $

10-Day Weather Forecast

Almanac

Astronomy

Dec. 11, 2016 Rise Set
Actual Time
Civil Twilight
Nautical Twilight
Astronomical Twilight
Moon
Length of Visible Light
Length of Day
Tomorrow will be .
, % of the Moon is Illuminated

Today's Extremes

State Highs State Lows

Community

WunderPhotos

Upload Photos

1,956,702 photos uploaded!

WunderBlog® & News

Nearby

Air Quality

  Air Quality AQ Index Pollutant
Not available.

Snow Depth

Station Depth Elevation

Earthquake Activity

City Distance Mag. Time & Date
Minimum magnitude displayed is 2.5.

Coastal Water Temperatures

Place Temperature

Stations

Nearby Weather Stations

Station Location Temp. Windchill Dew Point Humidity Wind Precip. Elev Updated Type
                   

Watches & Warnings

There are currently no watches in effect.